createdAt,value
2018-06-25T00:00:26.176Z,133.50
2018-06-25T00:02:53.409Z,135.47
2018-06-25T00:05:20.678Z,135.57
2018-06-25T00:07:48.136Z,134.63
2018-06-25T00:10:15.381Z,140.13
2018-06-25T00:12:42.603Z,136.17
2018-06-25T00:15:09.824Z,135.80
2018-06-25T00:17:37.044Z,136.07
2018-06-25T00:20:04.313Z,143.87
2018-06-25T00:22:31.522Z,135.70
2018-06-25T00:24:58.748Z,133.30
2018-06-25T00:27:25.973Z,133.03
2018-06-25T00:29:53.202Z,129.53
2018-06-25T00:32:20.441Z,133.17
2018-06-25T00:34:47.653Z,132.80
2018-06-25T00:37:14.875Z,137.03
2018-06-25T00:39:42.097Z,129.67
2018-06-25T00:42:09.320Z,131.70
2018-06-25T00:44:36.541Z,134.40
2018-06-25T00:47:03.837Z,131.57
2018-06-25T00:49:31.052Z,127.47
2018-06-25T00:51:58.288Z,126.73
2018-06-25T00:54:25.909Z,134.77
2018-06-25T00:56:53.133Z,133.67
2018-06-25T00:59:31.896Z,131.63
2018-06-25T01:01:59.112Z,131.73
2018-06-25T01:04:26.330Z,132.63
2018-06-25T01:06:53.565Z,127.57
2018-06-25T01:09:20.773Z,128.13
2018-06-25T01:11:48.037Z,132.23
2018-06-25T01:14:15.253Z,136.20
2018-06-25T01:16:42.585Z,125.33
2018-06-25T01:19:09.811Z,123.17
2018-06-25T01:21:37.044Z,124.90
2018-06-25T01:24:04.328Z,124.90
2018-06-25T01:26:31.572Z,128.37
2018-06-25T01:28:58.787Z,130.20
2018-06-25T01:31:26.005Z,126.23
2018-06-25T01:33:53.416Z,123.93
2018-06-25T01:36:20.652Z,133.73
2018-06-25T01:38:47.864Z,123.17
2018-06-25T01:41:15.094Z,127.77
2018-06-25T01:43:42.340Z,123.97
2018-06-25T01:46:09.596Z,127.83
2018-06-25T01:48:36.837Z,122.23
2018-06-25T01:51:04.108Z,120.63
2018-06-25T01:53:31.453Z,120.97
2018-06-25T01:55:58.668Z,123.13
2018-06-25T01:58:25.889Z,121.23
2018-06-25T02:00:53.102Z,119.97
2018-06-25T02:03:20.310Z,124.17
2018-06-25T02:05:47.513Z,121.70
2018-06-25T02:08:14.758Z,119.33
2018-06-25T02:10:41.974Z,121.27
2018-06-25T02:13:09.246Z,124.03
2018-06-25T02:15:36.453Z,123.93
2018-06-25T02:18:03.917Z,117.37
2018-06-25T02:20:31.125Z,124.37
2018-06-25T02:22:58.353Z,121.97
2018-06-25T02:25:25.553Z,119.77
2018-06-25T02:27:52.777Z,118.10
2018-06-25T02:30:20.009Z,122.37
2018-06-25T02:32:47.233Z,120.50
2018-06-25T02:35:14.438Z,118.90
2018-06-25T02:37:41.686Z,119.87
2018-06-25T02:40:08.942Z,127.73
2018-06-25T02:42:36.182Z,120.53
2018-06-25T02:45:03.476Z,119.47
2018-06-25T02:47:30.685Z,121.00
2018-06-25T02:49:57.925Z,128.30
2018-06-25T02:52:25.132Z,121.37
2018-06-25T02:54:52.350Z,125.67
2018-06-25T02:57:19.562Z,116.53
2018-06-25T02:59:46.769Z,125.27
2018-06-25T03:02:13.977Z,120.00
2018-06-25T03:04:41.193Z,127.53
2018-06-25T03:07:08.421Z,114.03
2018-06-25T03:09:35.629Z,119.03
2018-06-25T03:12:02.877Z,113.63
2018-06-25T03:14:30.101Z,111.27
2018-06-25T03:16:57.309Z,111.70
2018-06-25T03:19:24.545Z,114.57
2018-06-25T03:21:51.749Z,107.37
2018-06-25T03:24:18.987Z,114.47
2018-06-25T03:26:46.230Z,108.40
2018-06-25T03:29:13.464Z,111.57
2018-06-25T03:31:40.684Z,106.87
2018-06-25T03:34:07.913Z,106.37
2018-06-25T03:36:35.177Z,106.87
2018-06-25T03:39:02.901Z,109.20
2018-06-25T03:41:30.209Z,107.57
2018-06-25T03:43:57.418Z,109.87
2018-06-25T03:46:24.625Z,107.13
2018-06-25T03:48:51.853Z,108.13
2018-06-25T03:51:19.069Z,110.30
2018-06-25T03:53:46.305Z,111.27
2018-06-25T03:56:13.516Z,112.67
2018-06-25T03:58:40.729Z,109.97
2018-06-25T04:01:08.037Z,107.70
2018-06-25T04:03:35.189Z,113.57
2018-06-25T04:06:02.405Z,111.27
2018-06-25T04:08:29.657Z,108.57
2018-06-25T04:10:56.888Z,109.50
2018-06-25T04:13:24.106Z,118.37
2018-06-25T04:15:51.345Z,116.83
2018-06-25T04:18:18.578Z,114.03
2018-06-25T04:20:45.898Z,114.40
2018-06-25T04:23:13.035Z,122.07
2018-06-25T04:25:40.345Z,120.67
2018-06-25T04:28:07.578Z,120.37
2018-06-25T04:30:34.855Z,130.83
2018-06-25T04:33:02.070Z,121.73
2018-06-25T04:35:29.305Z,132.73
2018-06-25T04:37:56.540Z,128.53
2018-06-25T04:40:23.815Z,124.83
2018-06-25T04:42:50.981Z,127.37
2018-06-25T04:45:18.206Z,131.27
2018-06-25T04:47:45.433Z,131.90
2018-06-25T04:50:12.649Z,126.00
2018-06-25T04:52:39.885Z,127.27
2018-06-25T04:55:07.125Z,123.67
2018-06-25T04:57:34.341Z,127.37
2018-06-25T05:00:01.639Z,135.53
2018-06-25T05:02:28.861Z,141.67
2018-06-25T05:04:56.123Z,142.50
2018-06-25T05:07:23.332Z,147.53
2018-06-25T05:09:50.541Z,145.37
2018-06-25T05:12:17.785Z,145.67
2018-06-25T05:14:45.086Z,142.90
2018-06-25T05:17:12.313Z,144.23
2018-06-25T05:19:39.549Z,146.00
2018-06-25T05:22:06.765Z,143.83
2018-06-25T05:24:34.032Z,141.43
2018-06-25T05:27:01.318Z,149.23
2018-06-25T05:29:28.570Z,153.73
2018-06-25T05:31:55.967Z,138.37
2018-06-25T05:34:23.192Z,144.97
2018-06-25T05:36:50.442Z,143.53
2018-06-25T05:39:17.646Z,142.77
2018-06-25T05:41:44.885Z,142.90
2018-06-25T05:44:12.699Z,146.00
2018-06-25T05:46:39.933Z,148.03
2018-06-25T05:49:07.439Z,162.10
2018-06-25T05:51:34.658Z,148.70
2018-06-25T05:54:01.885Z,157.40
2018-06-25T05:56:29.093Z,154.30
2018-06-25T05:58:57.183Z,159.30
2018-06-25T06:01:24.341Z,163.50
2018-06-25T06:03:51.605Z,166.27
2018-06-25T06:06:18.811Z,157.83
2018-06-25T06:08:46.041Z,164.17
2018-06-25T06:11:13.267Z,157.53
2018-06-25T06:13:40.497Z,181.33
2018-06-25T06:16:07.703Z,163.40
2018-06-25T06:18:34.930Z,180.03
2018-06-25T06:21:02.206Z,167.87
2018-06-25T06:23:29.553Z,183.47
2018-06-25T06:25:56.780Z,182.47
2018-06-25T06:28:23.992Z,186.83
2018-06-25T06:30:51.205Z,178.07
2018-06-25T06:33:18.405Z,177.47
2018-06-25T06:35:45.626Z,180.87
2018-06-25T06:38:12.837Z,182.33
2018-06-25T06:40:40.042Z,179.53
2018-06-25T06:43:07.254Z,193.57
2018-06-25T06:45:34.486Z,193.97
2018-06-25T06:48:01.705Z,200.97
2018-06-25T06:50:28.914Z,207.27
2018-06-25T06:52:56.160Z,211.67
2018-06-25T06:55:23.397Z,229.33
2018-06-25T06:57:50.635Z,226.80
2018-06-25T07:00:17.854Z,219.33
2018-06-25T07:02:45.129Z,211.60
2018-06-25T07:05:12.345Z,216.10
2018-06-25T07:07:39.555Z,239.90
2018-06-25T07:10:06.813Z,237.97
2018-06-25T07:12:34.049Z,224.50
2018-06-25T07:15:01.262Z,225.30
2018-06-25T07:17:28.493Z,222.17
2018-06-25T07:19:55.718Z,247.57
2018-06-25T07:22:22.925Z,238.17
2018-06-25T07:24:50.153Z,219.60
2018-06-25T07:27:17.367Z,232.13
2018-06-25T07:29:44.577Z,222.87
2018-06-25T07:32:11.781Z,220.57
2018-06-25T07:34:38.993Z,227.07
2018-06-25T07:37:06.209Z,220.87
2018-06-25T07:39:33.442Z,201.23
2018-06-25T07:42:00.638Z,201.53
2018-06-25T07:44:27.849Z,221.73
2018-06-25T07:46:55.049Z,215.10
2018-06-25T07:49:22.270Z,202.13
2018-06-25T07:51:49.593Z,211.23
2018-06-25T07:54:16.818Z,200.70
2018-06-25T07:56:44.031Z,194.77
2018-06-25T07:59:11.255Z,210.37
2018-06-25T08:01:38.461Z,224.77
2018-06-25T08:04:05.661Z,242.13
2018-06-25T08:06:32.885Z,274.03
2018-06-25T08:09:00.127Z,316.70
2018-06-25T08:11:27.576Z,398.50
2018-06-25T08:13:54.820Z,399.83
2018-06-25T08:16:22.156Z,418.27
2018-06-25T08:18:49.309Z,413.37
2018-06-25T08:21:16.897Z,409.80
2018-06-25T08:23:44.105Z,382.27
2018-06-25T08:26:11.526Z,395.43
2018-06-25T08:28:38.720Z,365.80
2018-06-25T08:31:06.253Z,324.10
2018-06-25T08:33:33.480Z,340.87
2018-06-25T08:36:00.700Z,321.17
2018-06-25T08:38:27.924Z,345.50
2018-06-25T08:40:55.193Z,321.17
2018-06-25T08:43:22.396Z,351.27
2018-06-25T08:45:49.633Z,314.37
2018-06-25T08:48:16.823Z,302.57
2018-06-25T08:50:44.033Z,310.60
2018-06-25T08:53:11.233Z,332.07
2018-06-25T08:55:38.448Z,312.20
2018-06-25T08:58:05.661Z,325.97
2018-06-25T09:00:32.871Z,342.63
2018-06-25T09:03:00.074Z,342.43
2018-06-25T09:05:27.281Z,331.77
2018-06-25T09:07:54.489Z,340.83
2018-06-25T09:10:21.716Z,354.37
2018-06-25T09:12:48.941Z,347.93
2018-06-25T09:15:16.231Z,343.67
2018-06-25T09:17:43.405Z,381.70
2018-06-25T09:20:10.631Z,398.93
2018-06-25T09:22:37.934Z,401.47
2018-06-25T09:25:05.208Z,416.20
2018-06-25T09:27:38.146Z,453.07
2018-06-25T09:30:05.573Z,443.53
2018-06-25T09:32:32.780Z,447.73
2018-06-25T09:34:59.985Z,461.30
2018-06-25T09:37:27.224Z,450.73
2018-06-25T09:39:54.481Z,464.13
2018-06-25T09:42:21.702Z,493.90
2018-06-25T09:44:48.917Z,468.77
2018-06-25T09:47:16.143Z,474.67
2018-06-25T09:49:43.365Z,428.47
2018-06-25T09:52:10.576Z,445.33
2018-06-25T09:54:37.856Z,426.67
2018-06-25T09:57:05.107Z,414.10
2018-06-25T09:59:32.341Z,404.80
2018-06-25T10:01:59.545Z,417.53
2018-06-25T10:04:26.749Z,446.77
2018-06-25T10:06:53.961Z,495.07
2018-06-25T10:09:21.163Z,487.43
2018-06-25T10:11:48.384Z,486.73
2018-06-25T10:14:15.605Z,483.43
2018-06-25T10:16:42.849Z,510.63
2018-06-25T10:19:10.062Z,519.40
2018-06-25T10:21:37.306Z,539.27
2018-06-25T10:24:04.549Z,529.77
2018-06-25T10:26:31.781Z,495.43
2018-06-25T10:28:58.994Z,516.93
2018-06-25T10:31:26.201Z,488.67
2018-06-25T10:33:53.521Z,485.83
2018-06-25T10:36:20.721Z,469.13
2018-06-25T10:38:47.962Z,464.97
2018-06-25T10:41:15.174Z,445.73
2018-06-25T10:43:42.401Z,450.80
2018-06-25T10:46:09.642Z,458.40
2018-06-25T10:48:36.869Z,443.60
2018-06-25T10:51:04.073Z,460.33
2018-06-25T10:53:31.314Z,541.73
2018-06-25T10:55:58.585Z,534.77
2018-06-25T10:58:25.817Z,599.27
2018-06-25T11:00:53.025Z,664.27
2018-06-25T11:03:20.525Z,691.13
2018-06-25T11:05:47.757Z,687.00
2018-06-25T11:08:15.021Z,696.67
2018-06-25T11:10:42.237Z,669.30
2018-06-25T11:13:09.453Z,629.77
2018-06-25T11:15:36.837Z,616.63
2018-06-25T11:18:04.401Z,560.87
2018-06-25T11:20:31.607Z,588.23
2018-06-25T11:22:58.813Z,611.87
2018-06-25T11:25:26.025Z,615.33
2018-06-25T11:27:53.222Z,696.33
2018-06-25T11:30:20.433Z,690.20
2018-06-25T11:32:47.633Z,677.80
2018-06-25T11:35:14.849Z,623.50
2018-06-25T11:37:42.066Z,591.87
2018-06-25T11:40:09.278Z,590.80
2018-06-25T11:42:36.489Z,532.07
2018-06-25T11:45:03.746Z,527.87
2018-06-25T11:47:30.931Z,494.93
2018-06-25T11:49:58.480Z,493.77
2018-06-25T11:52:25.658Z,536.80
2018-06-25T11:54:52.888Z,605.53
2018-06-25T11:57:20.097Z,615.70
2018-06-25T11:59:47.330Z,686.10
2018-06-25T12:02:14.557Z,688.23
2018-06-25T12:04:41.779Z,709.07
2018-06-25T12:07:09.009Z,670.00
2018-06-25T12:09:36.217Z,680.97
2018-06-25T12:12:03.470Z,694.30
2018-06-25T12:14:30.685Z,693.37
2018-06-25T12:16:57.987Z,689.83
2018-06-25T12:19:25.192Z,654.90
2018-06-25T12:21:52.400Z,690.53
2018-06-25T12:24:19.627Z,665.47
2018-06-25T12:26:46.837Z,667.90
2018-06-25T12:29:14.060Z,677.80
2018-06-25T12:31:41.278Z,689.80
2018-06-25T12:34:08.497Z,702.27
2018-06-25T12:36:35.705Z,696.33
2018-06-25T12:39:05.205Z,742.03
2018-06-25T12:41:32.469Z,713.93
2018-06-25T12:43:59.657Z,736.50
2018-06-25T12:46:26.857Z,735.17
2018-06-25T12:48:54.093Z,733.87
2018-06-25T12:51:21.301Z,718.90
2018-06-25T12:53:48.572Z,755.30
2018-06-25T12:56:15.769Z,801.87
2018-06-25T12:58:42.982Z,782.10
2018-06-25T13:01:10.194Z,800.17
2018-06-25T13:03:37.414Z,783.37
2018-06-25T13:06:04.716Z,767.57
2018-06-25T13:08:31.921Z,753.93
2018-06-25T13:10:59.121Z,742.47
2018-06-25T13:13:26.321Z,718.63
2018-06-25T13:15:53.535Z,642.50
2018-06-25T13:18:20.802Z,628.80
2018-06-25T13:20:48.038Z,583.47
2018-06-25T13:23:15.297Z,547.33
2018-06-25T13:25:42.588Z,509.70
2018-06-25T13:28:09.852Z,514.67
2018-06-25T13:30:37.681Z,573.20
2018-06-25T13:33:04.905Z,621.37
2018-06-25T13:35:32.113Z,605.47
2018-06-25T13:37:59.319Z,606.60
2018-06-25T13:40:26.537Z,601.53
2018-06-25T13:42:53.741Z,595.73
2018-06-25T13:45:21.010Z,534.93
2018-06-25T13:47:48.241Z,513.87
2018-06-25T13:50:15.478Z,483.13
2018-06-25T13:52:42.697Z,516.93
2018-06-25T13:55:09.985Z,505.57
2018-06-25T13:57:37.162Z,515.57
2018-06-25T14:00:05.586Z,549.27
2018-06-25T14:02:32.707Z,525.80
2018-06-25T14:04:59.900Z,539.00
2018-06-25T14:07:27.109Z,560.77
2018-06-25T14:09:54.421Z,596.33
2018-06-25T14:12:21.592Z,601.27
2018-06-25T14:14:48.848Z,625.93
2018-06-25T14:17:16.086Z,633.67
2018-06-25T14:19:43.321Z,680.77
2018-06-25T14:22:10.561Z,654.33
2018-06-25T14:24:43.573Z,655.53
2018-06-25T14:27:11.819Z,635.87
2018-06-25T14:29:39.061Z,630.93
2018-06-25T14:32:41.232Z,629.83
2018-06-25T14:35:14.986Z,642.33
2018-06-25T14:37:42.546Z,659.47
2018-06-25T14:40:09.788Z,612.80
2018-06-25T14:42:37.001Z,610.63
2018-06-25T14:45:04.295Z,602.37
2018-06-25T14:47:31.475Z,572.93
2018-06-25T14:49:58.693Z,636.30
2018-06-25T14:52:25.972Z,645.90
2018-06-25T14:54:53.133Z,623.73
2018-06-25T14:57:20.338Z,606.77
2018-06-25T14:59:47.609Z,576.83
2018-06-25T15:02:14.829Z,567.17
2018-06-25T15:04:42.034Z,603.97
2018-06-25T15:07:09.249Z,561.47
2018-06-25T15:09:36.448Z,582.50
2018-06-25T15:12:03.721Z,569.67
2018-06-25T15:14:30.951Z,535.10
2018-06-25T15:16:58.179Z,551.60
2018-06-25T15:19:25.397Z,483.87
2018-06-25T15:21:52.625Z,491.23
2018-06-25T15:24:19.833Z,517.13
2018-06-25T15:26:47.069Z,536.90
2018-06-25T15:29:14.277Z,536.43
2018-06-25T15:31:41.517Z,511.40
2018-06-25T15:34:08.738Z,506.20
2018-06-25T15:36:35.950Z,498.83
2018-06-25T15:39:05.453Z,502.93
2018-06-25T15:41:32.673Z,479.30
2018-06-25T15:43:59.911Z,505.67
2018-06-25T15:46:27.108Z,516.20
2018-06-25T15:48:54.431Z,512.97
2018-06-25T15:51:21.637Z,484.53
2018-06-25T15:53:48.900Z,526.40
2018-06-25T15:56:16.097Z,533.47
2018-06-25T15:58:43.313Z,528.77
2018-06-25T16:01:10.552Z,549.90
2018-06-25T16:03:37.783Z,557.23
2018-06-25T16:06:05.019Z,517.20
2018-06-25T16:08:32.253Z,548.43
2018-06-25T16:10:59.459Z,494.90
2018-06-25T16:13:26.790Z,473.23
2018-06-25T16:15:53.981Z,449.73
2018-06-25T16:18:21.460Z,462.20
2018-06-25T16:20:48.769Z,465.40
2018-06-25T16:23:15.993Z,458.17
2018-06-25T16:25:43.218Z,477.40
2018-06-25T16:28:10.454Z,490.47
2018-06-25T16:30:37.665Z,449.40
2018-06-25T16:33:04.899Z,424.60
2018-06-25T16:35:32.146Z,423.50
2018-06-25T16:37:59.400Z,390.87
2018-06-25T16:40:26.612Z,376.37
2018-06-25T16:42:53.948Z,387.73
2018-06-25T16:45:21.230Z,374.03
2018-06-25T16:47:48.449Z,433.00
2018-06-25T16:50:15.674Z,429.10
2018-06-25T16:52:42.881Z,418.20
2018-06-25T16:55:10.102Z,431.97
2018-06-25T16:57:37.322Z,424.47
2018-06-25T17:00:04.983Z,393.77
2018-06-25T17:02:32.217Z,404.97
2018-06-25T17:04:59.429Z,353.47
2018-06-25T17:07:26.633Z,358.20
2018-06-25T17:09:53.850Z,349.83
2018-06-25T17:12:21.069Z,341.17
2018-06-25T17:14:48.272Z,368.37
2018-06-25T17:17:15.537Z,369.30
2018-06-25T17:19:42.794Z,378.93
2018-06-25T17:22:10.029Z,382.13
2018-06-25T17:24:38.169Z,379.20
2018-06-25T17:27:05.417Z,387.23
2018-06-25T17:29:32.648Z,388.93
2018-06-25T17:31:59.854Z,366.67
2018-06-25T17:34:27.056Z,368.63
2018-06-25T17:36:54.279Z,351.20
2018-06-25T17:39:21.545Z,341.93
2018-06-25T17:41:48.761Z,328.93
2018-06-25T17:44:15.981Z,306.77
2018-06-25T17:46:43.252Z,292.90
2018-06-25T17:49:10.455Z,270.90
2018-06-25T17:51:37.783Z,255.27
2018-06-25T17:54:05.065Z,249.97
2018-06-25T17:56:32.286Z,253.50
2018-06-25T17:58:59.669Z,248.93
2018-06-25T18:01:27.020Z,240.67
2018-06-25T18:03:54.253Z,268.17
2018-06-25T18:06:21.477Z,247.53
2018-06-25T18:08:48.710Z,255.87
2018-06-25T18:11:15.969Z,251.73
2018-06-25T18:13:43.198Z,240.33
2018-06-25T18:16:10.666Z,221.60
2018-06-25T18:18:37.877Z,230.63
2018-06-25T18:21:05.237Z,225.23
2018-06-25T18:23:32.453Z,218.90
2018-06-25T18:25:59.670Z,215.00
2018-06-25T18:28:26.941Z,211.63
2018-06-25T18:30:54.101Z,209.47
2018-06-25T18:33:21.303Z,215.17
2018-06-25T18:35:48.529Z,209.20
2018-06-25T18:38:15.793Z,243.27
2018-06-25T18:40:43.005Z,217.17
2018-06-25T18:43:10.247Z,205.30
2018-06-25T18:45:37.520Z,220.27
2018-06-25T18:48:04.789Z,197.17
2018-06-25T18:50:32.005Z,227.03
2018-06-25T18:52:59.322Z,198.50
2018-06-25T18:55:26.544Z,192.63
2018-06-25T18:57:53.836Z,209.53
2018-06-25T19:00:21.087Z,205.37
2018-06-25T19:02:48.321Z,211.27
2018-06-25T19:05:15.565Z,197.30
2018-06-25T19:07:42.794Z,189.27
2018-06-25T19:10:21.535Z,190.50
2018-06-25T19:12:48.753Z,195.77
2018-06-25T19:15:15.961Z,175.60
2018-06-25T19:17:43.189Z,189.53
2018-06-25T19:20:10.417Z,184.17
2018-06-25T19:22:37.725Z,169.83
2018-06-25T19:25:04.987Z,166.70
2018-06-25T19:27:32.303Z,172.40
2018-06-25T19:29:59.527Z,162.83
2018-06-25T19:32:26.751Z,178.60
2018-06-25T19:34:53.955Z,169.23
2018-06-25T19:37:21.346Z,174.90
2018-06-25T19:39:48.573Z,178.57
2018-06-25T19:42:15.825Z,168.60
2018-06-25T19:44:43.048Z,168.23
2018-06-25T19:47:10.339Z,175.43
2018-06-25T19:49:37.549Z,162.50
2018-06-25T19:52:04.790Z,167.73
2018-06-25T19:54:32.005Z,168.03
2018-06-25T19:56:59.236Z,160.33
2018-06-25T19:59:26.829Z,152.17
2018-06-25T20:01:54.099Z,169.23
2018-06-25T20:04:21.320Z,152.90
2018-06-25T20:06:48.562Z,152.00
2018-06-25T20:09:15.821Z,150.30
2018-06-25T20:11:43.048Z,153.00
2018-06-25T20:14:10.414Z,143.57
2018-06-25T20:16:37.732Z,154.70
2018-06-25T20:19:04.973Z,150.93
2018-06-25T20:21:32.342Z,148.00
2018-06-25T20:23:59.540Z,151.10
2018-06-25T20:26:26.786Z,152.97
2018-06-25T20:28:54.105Z,142.80
2018-06-25T20:31:21.345Z,139.10
2018-06-25T20:33:48.577Z,139.83
2018-06-25T20:36:15.850Z,154.97
2018-06-25T20:38:43.044Z,138.20
2018-06-25T20:41:10.506Z,150.17
2018-06-25T20:43:37.897Z,145.30
2018-06-25T20:46:05.257Z,143.97
2018-06-25T20:48:32.621Z,141.90
2018-06-25T20:50:59.869Z,150.17
2018-06-25T20:53:27.082Z,139.23
2018-06-25T20:55:54.354Z,138.20
2018-06-25T20:58:21.581Z,137.40
2018-06-25T21:00:48.953Z,142.73
2018-06-25T21:03:16.160Z,140.60
2018-06-25T21:05:43.398Z,143.07
2018-06-25T21:08:10.613Z,147.33
2018-06-25T21:10:42.561Z,140.83
2018-06-25T21:13:09.822Z,135.23
2018-06-25T21:15:37.036Z,137.37
2018-06-25T21:18:04.533Z,133.77
2018-06-25T21:20:31.803Z,141.57
2018-06-25T21:22:59.025Z,137.60
2018-06-25T21:25:26.342Z,143.60
2018-06-25T21:27:53.501Z,132.07
2018-06-25T21:30:20.750Z,131.97
2018-06-25T21:32:47.968Z,128.93
2018-06-25T21:35:15.174Z,129.30
2018-06-25T21:37:42.417Z,137.23
2018-06-25T21:40:09.713Z,130.20
2018-06-25T21:42:36.937Z,140.60
2018-06-25T21:45:04.193Z,128.10
2018-06-25T21:47:31.491Z,132.43
2018-06-25T21:49:58.671Z,127.83
2018-06-25T21:52:25.886Z,134.93
2018-06-25T21:54:53.173Z,129.90
2018-06-25T21:57:20.524Z,125.43
2018-06-25T21:59:47.757Z,139.17
2018-06-25T22:02:14.982Z,137.93
2018-06-25T22:04:42.202Z,126.33
2018-06-25T22:07:09.413Z,126.27
2018-06-25T22:09:36.621Z,140.07
2018-06-25T22:12:04.027Z,124.87
2018-06-25T22:14:31.233Z,124.67
2018-06-25T22:16:58.476Z,140.97
2018-06-25T22:19:25.721Z,126.67
2018-06-25T22:21:52.961Z,127.77
2018-06-25T22:24:20.181Z,128.80
2018-06-25T22:26:47.428Z,133.53
2018-06-25T22:29:14.637Z,125.37
2018-06-25T22:31:41.893Z,130.47
2018-06-25T22:34:09.109Z,135.50
2018-06-25T22:36:36.332Z,131.57
2018-06-25T22:39:06.922Z,127.80
2018-06-25T22:41:34.141Z,133.63
2018-06-25T22:44:07.886Z,132.57
2018-06-25T22:46:35.978Z,128.73
2018-06-25T22:49:03.217Z,121.53
2018-06-25T22:51:30.457Z,123.73
2018-06-25T22:53:57.692Z,125.43
2018-06-25T22:56:24.913Z,136.90
2018-06-25T22:58:52.292Z,123.13
2018-06-25T23:01:19.569Z,127.97
2018-06-25T23:03:46.884Z,131.90
2018-06-25T23:06:14.046Z,126.93
2018-06-25T23:08:41.269Z,126.20
2018-06-25T23:11:08.488Z,121.90
2018-06-25T23:13:35.705Z,131.27
2018-06-25T23:16:02.937Z,129.73
2018-06-25T23:18:30.141Z,125.97
2018-06-25T23:20:57.341Z,132.07
2018-06-25T23:23:24.542Z,128.37
2018-06-25T23:25:51.783Z,125.13
2018-06-25T23:28:19.044Z,124.87
2018-06-25T23:30:46.237Z,127.30
2018-06-25T23:33:13.453Z,121.57
2018-06-25T23:35:40.659Z,123.93
2018-06-25T23:38:07.867Z,122.43
2018-06-25T23:40:35.085Z,126.40
2018-06-25T23:43:02.301Z,125.47
2018-06-25T23:45:29.496Z,121.40
2018-06-25T23:47:56.701Z,122.53
2018-06-25T23:50:23.906Z,129.07
2018-06-25T23:52:51.109Z,120.47
2018-06-25T23:55:18.313Z,126.10
2018-06-25T23:57:45.547Z,123.57
